Terminal Aerodrome Forecast
Issued by NWS Wilmington, OH

Current Version | Previous Version | Text Only | Print | Product List | Glossary Off
Versions: 1 2 3 4 5 6 7 8 9 10 11 12 13 14 15 16 17 18 19 20 21 22 23 24

194
FTUS41 KILN 242331
TAFCVG
TAF
KCVG 242331Z 2500/2606 20010G18KT P6SM SCT050 BKN250
     FM250300 18007KT P6SM SCT050 BKN200
     FM251500 18010G20KT P6SM SCT050 BKN150
     FM252300 15008KT P6SM SCT050 BKN150=

USA.gov is the U.S. government's official web portal to all federal, state and local government web resources and services.